Airfield :
LOGIN :

Register | Disclaimer

   EN    FR    IT 

 










Legend :    VFR   Marginal VFR   IFR   Intensive IFR   Very Intensive IFR
Visi :
Ceiling :
>= 8 km
>= 3000ft
5 to 8 km
1000 to 3000 ft
1500m to 5 km
500 to 1000 ft
800 to 1500m
200 to 500 ft
< 800m
< 200 ft
Symbols :   Thunderstorms  Fog  Heavy snow  Heavy precipitations  Wind > 20 kt
SIGMETs :     Misc.  Thunderstorms  Icing  Turbulence  Mountain Waves  Volcanic Ashes






- Airport Elevation : 84 ft


LFBC - Cazaux

CURRENT METAR :
  • 260130Z AUTO 23001KT 1400 R24/1700U // BKN039 BKN058 OVC084 08/07 Q1017

EXPIRED METARs :
  • 260100Z AUTO 00000KT 9999 // BKN038 OVC052 08/08 Q1017
  • 260030Z AUTO 18003KT 8000 // OVC036 08/08 Q1017
  • 260000Z AUTO 17001KT 9999 // SCT041 OVC049 08/08 Q1017
  • 252330Z AUTO 00000KT 9999 // NSC 08/07 Q1017
  • 252300Z AUTO 19001KT 9999 // NSC 08/07 Q1017

Expired Forecast.



MET'MAP, your aeronautical weather chart ! - Copyright ORBIFLY December 2007 - Disclaimer

ORBIFLY MET'MAP TEAM :

Programming & Development : Alexandra Zaïnal
Concept & original design : Baudouin d'Aumeries
Assistance for programming : Marc-Olivier Méhu
Technical & hardware support : Manuel Goepfert

Contact : metmap@orbifly.com




SOURCES & CREDITS :

   NOAA